sensor_id;sensor_type;location;lat;lon;timestamp;P1;durP1;ratioP1;P2;durP2;ratioP2
57023;SDS011;42916;54.346;18.562;2023-09-30T00:02:26;8.80;;;7.30;;
57023;SDS011;42916;54.346;18.562;2023-09-30T00:04:54;10.40;;;7.60;;
57023;SDS011;42916;54.346;18.562;2023-09-30T00:07:20;10.70;;;8.30;;
57023;SDS011;42916;54.346;18.562;2023-09-30T00:09:47;9.40;;;8.10;;
57023;SDS011;42916;54.346;18.562;2023-09-30T00:12:14;13.40;;;8.90;;
57023;SDS011;42916;54.346;18.562;2023-09-30T00:14:41;12.20;;;8.90;;
57023;SDS011;42916;54.346;18.562;2023-09-30T00:17:08;11.10;;;9.00;;
57023;SDS011;42916;54.346;18.562;2023-09-30T00:19:34;11.90;;;8.50;;
57023;SDS011;42916;54.346;18.562;2023-09-30T00:22:01;13.30;;;8.90;;
57023;SDS011;42916;54.346;18.562;2023-09-30T00:24:28;12.30;;;9.10;;
57023;SDS011;42916;54.346;18.562;2023-09-30T00:26:55;13.10;;;8.50;;
57023;SDS011;42916;54.346;18.562;2023-09-30T00:29:23;12.50;;;8.60;;
57023;SDS011;42916;54.346;18.562;2023-09-30T00:31:49;12.40;;;9.70;;
57023;SDS011;42916;54.346;18.562;2023-09-30T00:34:16;13.30;;;9.10;;
57023;SDS011;42916;54.346;18.562;2023-09-30T00:36:43;12.80;;;9.50;;
57023;SDS011;42916;54.346;18.562;2023-09-30T00:39:10;12.10;;;8.80;;
57023;SDS011;42916;54.346;18.562;2023-09-30T00:41:38;11.60;;;9.30;;
57023;SDS011;42916;54.346;18.562;2023-09-30T00:44:07;12.90;;;9.10;;
57023;SDS011;42916;54.346;18.562;2023-09-30T00:46:36;12.50;;;9.10;;
57023;SDS011;42916;54.346;18.562;2023-09-30T00:49:06;12.30;;;8.60;;
57023;SDS011;42916;54.346;18.562;2023-09-30T00:51:33;9.60;;;7.90;;
57023;SDS011;42916;54.346;18.562;2023-09-30T00:54:00;10.50;;;9.30;;
57023;SDS011;42916;54.346;18.562;2023-09-30T00:56:28;12.70;;;9.40;;
57023;SDS011;42916;54.346;18.562;2023-09-30T00:58:56;12.90;;;9.50;;
57023;SDS011;42916;54.346;18.562;2023-09-30T01:01:24;9.70;;;8.70;;
57023;SDS011;42916;54.346;18.562;2023-09-30T01:03:51;12.50;;;9.30;;
57023;SDS011;42916;54.346;18.562;2023-09-30T01:06:18;10.70;;;8.70;;
57023;SDS011;42916;54.346;18.562;2023-09-30T01:08:44;11.40;;;8.70;;
57023;SDS011;42916;54.346;18.562;2023-09-30T01:11:11;9.40;;;7.30;;
57023;SDS011;42916;54.346;18.562;2023-09-30T01:13:39;12.70;;;8.00;;
57023;SDS011;42916;54.346;18.562;2023-09-30T01:16:07;14.50;;;8.40;;
57023;SDS011;42916;54.346;18.562;2023-09-30T01:18:38;10.30;;;8.30;;
57023;SDS011;42916;54.346;18.562;2023-09-30T01:21:09;17.60;;;10.10;;
57023;SDS011;42916;54.346;18.562;2023-09-30T01:23:37;10.70;;;9.00;;
57023;SDS011;42916;54.346;18.562;2023-09-30T01:26:11;10.00;;;8.60;;
57023;SDS011;42916;54.346;18.562;2023-09-30T01:28:39;11.50;;;9.10;;
57023;SDS011;42916;54.346;18.562;2023-09-30T01:31:06;12.40;;;8.90;;
57023;SDS011;42916;54.346;18.562;2023-09-30T01:33:34;11.80;;;7.90;;
57023;SDS011;42916;54.346;18.562;2023-09-30T01:36:03;11.90;;;9.10;;
57023;SDS011;42916;54.346;18.562;2023-09-30T01:38:30;10.40;;;8.60;;
57023;SDS011;42916;54.346;18.562;2023-09-30T01:40:57;13.70;;;9.60;;
57023;SDS011;42916;54.346;18.562;2023-09-30T01:43:23;14.30;;;9.70;;
57023;SDS011;42916;54.346;18.562;2023-09-30T01:45:50;12.90;;;9.50;;
57023;SDS011;42916;54.346;18.562;2023-09-30T01:48:17;12.40;;;10.50;;
57023;SDS011;42916;54.346;18.562;2023-09-30T01:50:44;13.20;;;10.40;;
57023;SDS011;42916;54.346;18.562;2023-09-30T01:53:11;16.30;;;10.30;;
57023;SDS011;42916;54.346;18.562;2023-09-30T01:55:38;12.80;;;8.80;;
57023;SDS011;42916;54.346;18.562;2023-09-30T01:58:04;12.80;;;9.80;;
57023;SDS011;42916;54.346;18.562;2023-09-30T02:00:31;16.40;;;9.70;;
57023;SDS011;42916;54.346;18.562;2023-09-30T02:02:58;11.90;;;9.60;;
57023;SDS011;42916;54.346;18.562;2023-09-30T02:05:25;13.30;;;10.20;;
57023;SDS011;42916;54.346;18.562;2023-09-30T02:07:51;14.50;;;10.70;;
57023;SDS011;42916;54.346;18.562;2023-09-30T02:10:18;16.70;;;10.50;;
57023;SDS011;42916;54.346;18.562;2023-09-30T02:12:45;12.80;;;10.50;;
57023;SDS011;42916;54.346;18.562;2023-09-30T02:15:13;16.70;;;10.70;;
57023;SDS011;42916;54.346;18.562;2023-09-30T02:17:40;17.30;;;11.50;;
57023;SDS011;42916;54.346;18.562;2023-09-30T02:20:12;14.30;;;10.90;;
57023;SDS011;42916;54.346;18.562;2023-09-30T02:22:42;12.40;;;10.00;;
57023;SDS011;42916;54.346;18.562;2023-09-30T02:25:10;11.80;;;8.80;;
57023;SDS011;42916;54.346;18.562;2023-09-30T02:27:39;16.30;;;11.90;;
57023;SDS011;42916;54.346;18.562;2023-09-30T02:30:08;14.00;;;10.40;;
57023;SDS011;42916;54.346;18.562;2023-09-30T02:32:40;14.50;;;10.60;;
57023;SDS011;42916;54.346;18.562;2023-09-30T02:35:07;13.80;;;10.80;;
57023;SDS011;42916;54.346;18.562;2023-09-30T02:37:37;14.30;;;10.80;;
57023;SDS011;42916;54.346;18.562;2023-09-30T02:40:05;13.60;;;11.10;;
57023;SDS011;42916;54.346;18.562;2023-09-30T02:42:38;15.40;;;11.60;;
57023;SDS011;42916;54.346;18.562;2023-09-30T02:45:06;14.30;;;11.30;;
57023;SDS011;42916;54.346;18.562;2023-09-30T02:47:34;16.30;;;12.00;;
57023;SDS011;42916;54.346;18.562;2023-09-30T02:50:01;16.10;;;10.90;;
57023;SDS011;42916;54.346;18.562;2023-09-30T02:52:31;14.10;;;10.90;;
57023;SDS011;42916;54.346;18.562;2023-09-30T02:54:58;16.20;;;12.50;;
57023;SDS011;42916;54.346;18.562;2023-09-30T02:57:25;14.40;;;10.40;;
57023;SDS011;42916;54.346;18.562;2023-09-30T03:02:20;13.10;;;10.10;;
57023;SDS011;42916;54.346;18.562;2023-09-30T03:04:50;17.70;;;11.50;;
57023;SDS011;42916;54.346;18.562;2023-09-30T03:07:18;13.80;;;9.80;;
57023;SDS011;42916;54.346;18.562;2023-09-30T03:09:46;11.50;;;9.60;;
57023;SDS011;42916;54.346;18.562;2023-09-30T03:12:13;13.00;;;9.50;;
57023;SDS011;42916;54.346;18.562;2023-09-30T03:14:40;13.10;;;9.70;;
57023;SDS011;42916;54.346;18.562;2023-09-30T03:17:07;12.70;;;9.90;;
57023;SDS011;42916;54.346;18.562;2023-09-30T03:19:38;12.50;;;9.30;;
57023;SDS011;42916;54.346;18.562;2023-09-30T03:22:05;12.80;;;8.70;;
57023;SDS011;42916;54.346;18.562;2023-09-30T03:24:40;12.70;;;9.90;;
57023;SDS011;42916;54.346;18.562;2023-09-30T03:27:07;16.10;;;9.40;;
57023;SDS011;42916;54.346;18.562;2023-09-30T03:29:37;11.80;;;9.10;;
57023;SDS011;42916;54.346;18.562;2023-09-30T03:32:04;14.30;;;10.30;;
57023;SDS011;42916;54.346;18.562;2023-09-30T03:34:31;16.30;;;9.70;;
57023;SDS011;42916;54.346;18.562;2023-09-30T03:36:58;13.70;;;9.00;;
57023;SDS011;42916;54.346;18.562;2023-09-30T03:39:27;14.40;;;9.70;;
57023;SDS011;42916;54.346;18.562;2023-09-30T03:41:54;11.60;;;8.50;;
57023;SDS011;42916;54.346;18.562;2023-09-30T03:44:22;11.00;;;8.20;;
57023;SDS011;42916;54.346;18.562;2023-09-30T03:46:50;9.10;;;4.50;;
57023;SDS011;42916;54.346;18.562;2023-09-30T03:49:18;4.00;;;2.50;;
57023;SDS011;42916;54.346;18.562;2023-09-30T03:51:46;6.70;;;2.30;;
57023;SDS011;42916;54.346;18.562;2023-09-30T03:54:13;3.40;;;1.80;;
57023;SDS011;42916;54.346;18.562;2023-09-30T03:56:40;3.50;;;1.80;;
57023;SDS011;42916;54.346;18.562;2023-09-30T03:59:07;6.20;;;1.70;;
57023;SDS011;42916;54.346;18.562;2023-09-30T04:01:35;5.10;;;1.60;;
57023;SDS011;42916;54.346;18.562;2023-09-30T04:04:06;3.40;;;1.60;;
57023;SDS011;42916;54.346;18.562;2023-09-30T04:06:36;2.60;;;1.50;;
57023;SDS011;42916;54.346;18.562;2023-09-30T04:11:36;2.50;;;1.20;;
57023;SDS011;42916;54.346;18.562;2023-09-30T04:14:07;2.10;;;1.30;;
57023;SDS011;42916;54.346;18.562;2023-09-30T04:16:34;3.60;;;1.30;;
57023;SDS011;42916;54.346;18.562;2023-09-30T04:19:04;3.80;;;1.60;;
57023;SDS011;42916;54.346;18.562;2023-09-30T04:21:31;2.90;;;1.30;;
57023;SDS011;42916;54.346;18.562;2023-09-30T04:24:00;3.70;;;1.50;;
57023;SDS011;42916;54.346;18.562;2023-09-30T04:26:27;3.70;;;1.40;;
57023;SDS011;42916;54.346;18.562;2023-09-30T04:28:54;2.10;;;1.10;;
57023;SDS011;42916;54.346;18.562;2023-09-30T04:31:21;4.00;;;1.50;;
57023;SDS011;42916;54.346;18.562;2023-09-30T04:33:50;4.20;;;1.10;;
57023;SDS011;42916;54.346;18.562;2023-09-30T04:36:20;6.00;;;1.50;;
57023;SDS011;42916;54.346;18.562;2023-09-30T04:38:48;7.10;;;1.50;;
57023;SDS011;42916;54.346;18.562;2023-09-30T04:41:14;6.60;;;1.30;;
57023;SDS011;42916;54.346;18.562;2023-09-30T04:43:42;5.20;;;1.50;;
57023;SDS011;42916;54.346;18.562;2023-09-30T04:46:09;6.10;;;1.50;;
57023;SDS011;42916;54.346;18.562;2023-09-30T04:48:39;4.00;;;1.80;;
57023;SDS011;42916;54.346;18.562;2023-09-30T04:51:06;7.50;;;1.80;;
57023;SDS011;42916;54.346;18.562;2023-09-30T04:53:34;9.00;;;2.20;;
57023;SDS011;42916;54.346;18.562;2023-09-30T04:56:02;6.70;;;2.00;;
57023;SDS011;42916;54.346;18.562;2023-09-30T04:58:29;7.60;;;2.00;;
57023;SDS011;42916;54.346;18.562;2023-09-30T05:00:56;4.80;;;2.00;;
57023;SDS011;42916;54.346;18.562;2023-09-30T05:03:22;5.20;;;1.80;;
57023;SDS011;42916;54.346;18.562;2023-09-30T05:05:51;8.10;;;1.80;;
57023;SDS011;42916;54.346;18.562;2023-09-30T05:08:23;6.60;;;2.60;;
57023;SDS011;42916;54.346;18.562;2023-09-30T05:10:50;7.50;;;1.80;;
57023;SDS011;42916;54.346;18.562;2023-09-30T05:13:17;5.90;;;1.80;;
57023;SDS011;42916;54.346;18.562;2023-09-30T05:15:44;8.40;;;2.30;;
57023;SDS011;42916;54.346;18.562;2023-09-30T05:18:12;10.30;;;2.40;;
57023;SDS011;42916;54.346;18.562;2023-09-30T05:20:40;8.10;;;1.90;;
57023;SDS011;42916;54.346;18.562;2023-09-30T05:23:07;6.00;;;2.00;;
57023;SDS011;42916;54.346;18.562;2023-09-30T05:25:34;9.70;;;2.70;;
57023;SDS011;42916;54.346;18.562;2023-09-30T05:28:00;11.60;;;2.50;;
57023;SDS011;42916;54.346;18.562;2023-09-30T05:30:30;10.50;;;2.50;;
57023;SDS011;42916;54.346;18.562;2023-09-30T05:32:56;9.30;;;2.50;;
57023;SDS011;42916;54.346;18.562;2023-09-30T05:35:25;7.50;;;1.80;;
57023;SDS011;42916;54.346;18.562;2023-09-30T05:37:52;14.20;;;2.80;;
57023;SDS011;42916;54.346;18.562;2023-09-30T05:40:20;8.50;;;2.60;;
57023;SDS011;42916;54.346;18.562;2023-09-30T05:42:52;11.80;;;2.60;;
57023;SDS011;42916;54.346;18.562;2023-09-30T05:45:21;7.30;;;2.00;;
57023;SDS011;42916;54.346;18.562;2023-09-30T05:47:50;10.40;;;2.60;;
57023;SDS011;42916;54.346;18.562;2023-09-30T05:52:50;8.80;;;2.10;;
57023;SDS011;42916;54.346;18.562;2023-09-30T05:55:17;9.80;;;2.40;;
57023;SDS011;42916;54.346;18.562;2023-09-30T05:57:49;8.60;;;2.40;;
57023;SDS011;42916;54.346;18.562;2023-09-30T06:00:16;11.70;;;2.60;;
57023;SDS011;42916;54.346;18.562;2023-09-30T06:02:49;10.70;;;2.50;;
57023;SDS011;42916;54.346;18.562;2023-09-30T06:05:18;7.70;;;2.50;;
57023;SDS011;42916;54.346;18.562;2023-09-30T06:07:46;11.10;;;2.60;;
57023;SDS011;42916;54.346;18.562;2023-09-30T06:10:13;8.30;;;2.30;;
57023;SDS011;42916;54.346;18.562;2023-09-30T06:12:45;9.20;;;2.50;;
57023;SDS011;42916;54.346;18.562;2023-09-30T06:15:16;7.80;;;2.50;;
57023;SDS011;42916;54.346;18.562;2023-09-30T06:17:49;9.20;;;2.50;;
57023;SDS011;42916;54.346;18.562;2023-09-30T06:20:16;9.40;;;2.60;;
57023;SDS011;42916;54.346;18.562;2023-09-30T06:22:44;8.00;;;2.10;;
57023;SDS011;42916;54.346;18.562;2023-09-30T06:25:12;7.90;;;2.50;;
57023;SDS011;42916;54.346;18.562;2023-09-30T06:27:43;7.30;;;2.20;;
57023;SDS011;42916;54.346;18.562;2023-09-30T06:30:11;9.70;;;2.60;;
57023;SDS011;42916;54.346;18.562;2023-09-30T06:32:39;12.40;;;2.80;;
57023;SDS011;42916;54.346;18.562;2023-09-30T06:35:06;7.30;;;2.40;;
57023;SDS011;42916;54.346;18.562;2023-09-30T06:37:36;10.90;;;2.60;;
57023;SDS011;42916;54.346;18.562;2023-09-30T06:40:07;12.10;;;2.80;;
57023;SDS011;42916;54.346;18.562;2023-09-30T06:42:35;10.60;;;2.60;;
57023;SDS011;42916;54.346;18.562;2023-09-30T06:47:32;8.00;;;2.40;;
57023;SDS011;42916;54.346;18.562;2023-09-30T06:50:00;10.10;;;2.40;;
57023;SDS011;42916;54.346;18.562;2023-09-30T06:52:34;8.80;;;2.10;;
57023;SDS011;42916;54.346;18.562;2023-09-30T06:55:02;8.10;;;2.00;;
57023;SDS011;42916;54.346;18.562;2023-09-30T07:00:20;8.20;;;2.00;;
57023;SDS011;42916;54.346;18.562;2023-09-30T07:02:46;8.10;;;2.20;;
57023;SDS011;42916;54.346;18.562;2023-09-30T07:05:13;11.20;;;2.50;;
57023;SDS011;42916;54.346;18.562;2023-09-30T07:07:41;6.80;;;2.20;;
57023;SDS011;42916;54.346;18.562;2023-09-30T07:10:12;9.30;;;2.10;;
57023;SDS011;42916;54.346;18.562;2023-09-30T07:12:39;8.50;;;2.30;;
57023;SDS011;42916;54.346;18.562;2023-09-30T07:15:06;7.70;;;2.00;;
57023;SDS011;42916;54.346;18.562;2023-09-30T07:17:34;9.90;;;2.30;;
57023;SDS011;42916;54.346;18.562;2023-09-30T07:20:02;7.10;;;2.20;;
57023;SDS011;42916;54.346;18.562;2023-09-30T07:22:31;8.80;;;2.30;;
57023;SDS011;42916;54.346;18.562;2023-09-30T07:24:58;7.30;;;1.80;;
57023;SDS011;42916;54.346;18.562;2023-09-30T07:27:24;8.70;;;2.40;;
57023;SDS011;42916;54.346;18.562;2023-09-30T07:29:51;6.90;;;2.00;;
57023;SDS011;42916;54.346;18.562;2023-09-30T07:32:18;9.50;;;2.60;;
57023;SDS011;42916;54.346;18.562;2023-09-30T07:34:45;9.70;;;2.60;;
57023;SDS011;42916;54.346;18.562;2023-09-30T07:37:12;9.20;;;2.00;;
57023;SDS011;42916;54.346;18.562;2023-09-30T07:39:40;8.60;;;2.60;;
57023;SDS011;42916;54.346;18.562;2023-09-30T07:42:08;9.80;;;2.60;;
57023;SDS011;42916;54.346;18.562;2023-09-30T07:44:35;9.70;;;2.40;;
57023;SDS011;42916;54.346;18.562;2023-09-30T07:47:04;10.90;;;2.80;;
57023;SDS011;42916;54.346;18.562;2023-09-30T07:51:59;9.40;;;2.30;;
57023;SDS011;42916;54.346;18.562;2023-09-30T07:54:26;7.60;;;2.00;;
57023;SDS011;42916;54.346;18.562;2023-09-30T07:56:53;10.70;;;2.50;;
57023;SDS011;42916;54.346;18.562;2023-09-30T07:59:20;9.60;;;2.10;;
57023;SDS011;42916;54.346;18.562;2023-09-30T08:01:47;12.90;;;2.80;;
57023;SDS011;42916;54.346;18.562;2023-09-30T08:04:14;8.90;;;2.10;;
57023;SDS011;42916;54.346;18.562;2023-09-30T08:06:41;11.50;;;2.80;;
57023;SDS011;42916;54.346;18.562;2023-09-30T08:09:08;9.80;;;2.40;;
57023;SDS011;42916;54.346;18.562;2023-09-30T08:11:37;7.20;;;2.10;;
57023;SDS011;42916;54.346;18.562;2023-09-30T08:14:04;6.50;;;2.00;;
57023;SDS011;42916;54.346;18.562;2023-09-30T08:16:38;11.00;;;2.30;;
57023;SDS011;42916;54.346;18.562;2023-09-30T08:19:05;9.10;;;2.00;;
57023;SDS011;42916;54.346;18.562;2023-09-30T08:21:32;8.50;;;2.00;;
57023;SDS011;42916;54.346;18.562;2023-09-30T08:23:59;6.80;;;1.90;;
57023;SDS011;42916;54.346;18.562;2023-09-30T08:26:26;10.50;;;2.00;;
57023;SDS011;42916;54.346;18.562;2023-09-30T08:28:52;8.50;;;2.00;;
57023;SDS011;42916;54.346;18.562;2023-09-30T08:31:19;9.60;;;2.00;;
57023;SDS011;42916;54.346;18.562;2023-09-30T08:33:48;7.90;;;1.80;;
57023;SDS011;42916;54.346;18.562;2023-09-30T08:36:14;6.60;;;1.90;;
57023;SDS011;42916;54.346;18.562;2023-09-30T08:38:41;8.00;;;1.90;;
57023;SDS011;42916;54.346;18.562;2023-09-30T08:41:08;7.00;;;1.50;;
57023;SDS011;42916;54.346;18.562;2023-09-30T08:43:39;6.40;;;1.70;;
57023;SDS011;42916;54.346;18.562;2023-09-30T08:46:06;7.10;;;1.80;;
57023;SDS011;42916;54.346;18.562;2023-09-30T08:48:34;8.20;;;2.10;;
57023;SDS011;42916;54.346;18.562;2023-09-30T08:51:01;7.00;;;2.40;;
57023;SDS011;42916;54.346;18.562;2023-09-30T08:53:29;9.80;;;1.70;;
57023;SDS011;42916;54.346;18.562;2023-09-30T08:55:56;6.20;;;1.60;;
57023;SDS011;42916;54.346;18.562;2023-09-30T08:58:27;8.00;;;2.10;;
57023;SDS011;42916;54.346;18.562;2023-09-30T09:03:22;9.00;;;1.60;;
57023;SDS011;42916;54.346;18.562;2023-09-30T09:05:54;7.00;;;1.60;;
57023;SDS011;42916;54.346;18.562;2023-09-30T09:08:24;7.20;;;1.70;;
57023;SDS011;42916;54.346;18.562;2023-09-30T09:10:56;8.00;;;2.10;;
57023;SDS011;42916;54.346;18.562;2023-09-30T09:13:24;8.90;;;1.60;;
57023;SDS011;42916;54.346;18.562;2023-09-30T09:16:08;7.70;;;1.40;;
57023;SDS011;42916;54.346;18.562;2023-09-30T09:18:35;5.80;;;1.50;;
57023;SDS011;42916;54.346;18.562;2023-09-30T09:21:12;6.20;;;2.00;;
57023;SDS011;42916;54.346;18.562;2023-09-30T09:23:45;8.40;;;1.80;;
57023;SDS011;42916;54.346;18.562;2023-09-30T09:26:22;7.70;;;1.80;;
57023;SDS011;42916;54.346;18.562;2023-09-30T09:28:59;5.20;;;1.40;;
57023;SDS011;42916;54.346;18.562;2023-09-30T09:31:34;8.30;;;1.70;;
57023;SDS011;42916;54.346;18.562;2023-09-30T09:34:02;9.10;;;2.00;;
57023;SDS011;42916;54.346;18.562;2023-09-30T09:36:39;10.10;;;1.80;;
57023;SDS011;42916;54.346;18.562;2023-09-30T09:39:07;6.50;;;1.30;;
57023;SDS011;42916;54.346;18.562;2023-09-30T09:41:48;6.00;;;1.60;;
57023;SDS011;42916;54.346;18.562;2023-09-30T09:44:17;8.70;;;1.70;;
57023;SDS011;42916;54.346;18.562;2023-09-30T09:46:47;7.90;;;2.10;;
57023;SDS011;42916;54.346;18.562;2023-09-30T09:49:18;8.80;;;1.80;;
57023;SDS011;42916;54.346;18.562;2023-09-30T09:51:46;6.40;;;1.40;;
57023;SDS011;42916;54.346;18.562;2023-09-30T09:54:15;8.30;;;1.70;;
57023;SDS011;42916;54.346;18.562;2023-09-30T09:56:43;7.50;;;1.60;;
57023;SDS011;42916;54.346;18.562;2023-09-30T09:59:11;6.00;;;1.30;;
57023;SDS011;42916;54.346;18.562;2023-09-30T10:01:39;5.60;;;1.40;;
57023;SDS011;42916;54.346;18.562;2023-09-30T10:04:07;6.40;;;2.10;;
57023;SDS011;42916;54.346;18.562;2023-09-30T10:06:37;6.40;;;1.60;;
57023;SDS011;42916;54.346;18.562;2023-09-30T10:09:07;8.40;;;1.90;;
57023;SDS011;42916;54.346;18.562;2023-09-30T10:11:39;5.00;;;1.60;;
57023;SDS011;42916;54.346;18.562;2023-09-30T10:14:06;8.70;;;1.60;;
57023;SDS011;42916;54.346;18.562;2023-09-30T10:21:39;9.20;;;2.00;;
57023;SDS011;42916;54.346;18.562;2023-09-30T10:35:20;5.70;;;1.60;;
57023;SDS011;42916;54.346;18.562;2023-09-30T10:40:53;8.70;;;1.90;;
57023;SDS011;42916;54.346;18.562;2023-09-30T10:46:00;8.90;;;1.80;;
57023;SDS011;42916;54.346;18.562;2023-09-30T10:50:55;8.90;;;2.00;;
57023;SDS011;42916;54.346;18.562;2023-09-30T10:53:24;9.20;;;2.00;;
57023;SDS011;42916;54.346;18.562;2023-09-30T10:55:54;9.10;;;2.00;;
57023;SDS011;42916;54.346;18.562;2023-09-30T11:01:19;10.00;;;2.10;;
57023;SDS011;42916;54.346;18.562;2023-09-30T11:03:48;7.70;;;2.00;;
57023;SDS011;42916;54.346;18.562;2023-09-30T11:06:19;7.80;;;1.80;;
57023;SDS011;42916;54.346;18.562;2023-09-30T11:08:55;7.20;;;1.80;;
57023;SDS011;42916;54.346;18.562;2023-09-30T11:16:45;11.10;;;2.30;;
57023;SDS011;42916;54.346;18.562;2023-09-30T11:19:12;9.90;;;1.90;;
57023;SDS011;42916;54.346;18.562;2023-09-30T11:21:39;14.60;;;2.00;;
57023;SDS011;42916;54.346;18.562;2023-09-30T11:24:07;11.10;;;2.20;;
57023;SDS011;42916;54.346;18.562;2023-09-30T11:26:34;11.60;;;2.40;;
57023;SDS011;42916;54.346;18.562;2023-09-30T11:29:08;7.60;;;1.80;;
57023;SDS011;42916;54.346;18.562;2023-09-30T11:31:38;8.40;;;1.80;;
57023;SDS011;42916;54.346;18.562;2023-09-30T11:34:05;8.10;;;1.90;;
57023;SDS011;42916;54.346;18.562;2023-09-30T11:36:34;11.20;;;2.20;;
57023;SDS011;42916;54.346;18.562;2023-09-30T11:39:02;9.20;;;2.00;;
57023;SDS011;42916;54.346;18.562;2023-09-30T11:41:34;11.40;;;2.20;;
57023;SDS011;42916;54.346;18.562;2023-09-30T11:44:05;10.50;;;2.00;;
57023;SDS011;42916;54.346;18.562;2023-09-30T11:46:53;10.20;;;2.30;;
57023;SDS011;42916;54.346;18.562;2023-09-30T11:49:31;7.00;;;2.00;;
57023;SDS011;42916;54.346;18.562;2023-09-30T11:51:59;7.90;;;1.90;;
57023;SDS011;42916;54.346;18.562;2023-09-30T11:54:37;9.10;;;1.90;;
57023;SDS011;42916;54.346;18.562;2023-09-30T11:57:12;8.70;;;2.10;;
57023;SDS011;42916;54.346;18.562;2023-09-30T11:59:44;8.20;;;1.80;;
57023;SDS011;42916;54.346;18.562;2023-09-30T12:02:13;6.10;;;1.60;;
57023;SDS011;42916;54.346;18.562;2023-09-30T12:04:44;5.60;;;1.30;;
57023;SDS011;42916;54.346;18.562;2023-09-30T12:07:13;6.40;;;1.60;;
57023;SDS011;42916;54.346;18.562;2023-09-30T12:09:40;7.50;;;2.00;;
57023;SDS011;42916;54.346;18.562;2023-09-30T12:12:07;6.70;;;1.90;;
57023;SDS011;42916;54.346;18.562;2023-09-30T12:14:35;9.00;;;1.70;;
57023;SDS011;42916;54.346;18.562;2023-09-30T12:17:02;8.80;;;2.20;;
57023;SDS011;42916;54.346;18.562;2023-09-30T12:19:29;6.40;;;1.60;;
57023;SDS011;42916;54.346;18.562;2023-09-30T12:21:56;7.70;;;2.00;;
57023;SDS011;42916;54.346;18.562;2023-09-30T12:24:23;4.90;;;1.50;;
57023;SDS011;42916;54.346;18.562;2023-09-30T12:26:51;8.80;;;2.10;;
57023;SDS011;42916;54.346;18.562;2023-09-30T12:29:19;6.40;;;1.90;;
57023;SDS011;42916;54.346;18.562;2023-09-30T12:31:49;7.60;;;1.80;;
57023;SDS011;42916;54.346;18.562;2023-09-30T12:34:17;5.00;;;1.70;;
57023;SDS011;42916;54.346;18.562;2023-09-30T12:36:44;7.10;;;2.00;;
57023;SDS011;42916;54.346;18.562;2023-09-30T12:39:11;5.90;;;1.70;;
57023;SDS011;42916;54.346;18.562;2023-09-30T12:41:38;7.10;;;1.90;;
57023;SDS011;42916;54.346;18.562;2023-09-30T12:44:06;6.10;;;1.80;;
57023;SDS011;42916;54.346;18.562;2023-09-30T12:46:34;5.20;;;1.80;;
57023;SDS011;42916;54.346;18.562;2023-09-30T12:49:03;6.00;;;1.70;;
57023;SDS011;42916;54.346;18.562;2023-09-30T12:51:31;4.70;;;1.60;;
57023;SDS011;42916;54.346;18.562;2023-09-30T12:53:59;12.20;;;1.90;;
57023;SDS011;42916;54.346;18.562;2023-09-30T12:56:27;8.00;;;2.00;;
57023;SDS011;42916;54.346;18.562;2023-09-30T13:01:22;9.80;;;2.30;;
57023;SDS011;42916;54.346;18.562;2023-09-30T13:03:50;7.90;;;1.50;;
57023;SDS011;42916;54.346;18.562;2023-09-30T13:06:18;8.30;;;1.70;;
57023;SDS011;42916;54.346;18.562;2023-09-30T13:08:45;9.70;;;1.70;;
57023;SDS011;42916;54.346;18.562;2023-09-30T13:11:13;8.10;;;1.50;;
57023;SDS011;42916;54.346;18.562;2023-09-30T13:13:40;8.20;;;1.80;;
57023;SDS011;42916;54.346;18.562;2023-09-30T13:16:09;6.90;;;1.70;;
57023;SDS011;42916;54.346;18.562;2023-09-30T13:18:40;6.80;;;1.60;;
57023;SDS011;42916;54.346;18.562;2023-09-30T13:21:07;4.20;;;1.50;;
57023;SDS011;42916;54.346;18.562;2023-09-30T13:23:33;8.20;;;1.90;;
57023;SDS011;42916;54.346;18.562;2023-09-30T13:26:01;8.40;;;1.70;;
57023;SDS011;42916;54.346;18.562;2023-09-30T13:28:28;7.30;;;1.70;;
57023;SDS011;42916;54.346;18.562;2023-09-30T13:30:55;8.00;;;1.90;;
57023;SDS011;42916;54.346;18.562;2023-09-30T13:33:23;8.80;;;2.20;;
57023;SDS011;42916;54.346;18.562;2023-09-30T13:35:50;6.40;;;1.70;;
57023;SDS011;42916;54.346;18.562;2023-09-30T13:38:17;8.20;;;1.70;;
57023;SDS011;42916;54.346;18.562;2023-09-30T13:40:43;7.60;;;1.70;;
57023;SDS011;42916;54.346;18.562;2023-09-30T13:43:11;3.40;;;1.00;;
57023;SDS011;42916;54.346;18.562;2023-09-30T13:45:38;6.20;;;1.70;;
57023;SDS011;42916;54.346;18.562;2023-09-30T13:48:05;8.70;;;1.90;;
57023;SDS011;42916;54.346;18.562;2023-09-30T13:50:33;5.90;;;1.70;;
57023;SDS011;42916;54.346;18.562;2023-09-30T13:53:00;6.70;;;1.60;;
57023;SDS011;42916;54.346;18.562;2023-09-30T13:55:28;5.10;;;1.50;;
57023;SDS011;42916;54.346;18.562;2023-09-30T13:57:55;5.10;;;1.70;;
57023;SDS011;42916;54.346;18.562;2023-09-30T14:00:22;8.90;;;2.10;;
57023;SDS011;42916;54.346;18.562;2023-09-30T14:02:49;10.20;;;1.70;;
57023;SDS011;42916;54.346;18.562;2023-09-30T14:07:45;8.90;;;1.90;;
57023;SDS011;42916;54.346;18.562;2023-09-30T14:10:11;6.20;;;1.70;;
57023;SDS011;42916;54.346;18.562;2023-09-30T14:12:38;8.30;;;1.80;;
57023;SDS011;42916;54.346;18.562;2023-09-30T14:15:09;5.00;;;1.40;;
57023;SDS011;42916;54.346;18.562;2023-09-30T14:17:36;8.40;;;2.40;;
57023;SDS011;42916;54.346;18.562;2023-09-30T14:20:03;7.70;;;2.00;;
57023;SDS011;42916;54.346;18.562;2023-09-30T14:22:31;6.90;;;2.00;;
57023;SDS011;42916;54.346;18.562;2023-09-30T14:24:58;9.80;;;1.90;;
57023;SDS011;42916;54.346;18.562;2023-09-30T14:27:25;8.10;;;1.90;;
57023;SDS011;42916;54.346;18.562;2023-09-30T14:29:52;6.60;;;1.60;;
57023;SDS011;42916;54.346;18.562;2023-09-30T14:32:19;7.70;;;2.00;;
57023;SDS011;42916;54.346;18.562;2023-09-30T14:34:46;8.50;;;1.80;;
57023;SDS011;42916;54.346;18.562;2023-09-30T14:37:12;8.90;;;2.00;;
57023;SDS011;42916;54.346;18.562;2023-09-30T14:39:39;9.40;;;1.50;;
57023;SDS011;42916;54.346;18.562;2023-09-30T14:42:06;7.50;;;1.90;;
57023;SDS011;42916;54.346;18.562;2023-09-30T14:44:33;7.60;;;1.80;;
57023;SDS011;42916;54.346;18.562;2023-09-30T14:46:59;7.90;;;2.20;;
57023;SDS011;42916;54.346;18.562;2023-09-30T14:49:26;7.80;;;1.90;;
57023;SDS011;42916;54.346;18.562;2023-09-30T14:51:53;8.20;;;1.90;;
57023;SDS011;42916;54.346;18.562;2023-09-30T14:54:20;8.40;;;2.00;;
57023;SDS011;42916;54.346;18.562;2023-09-30T14:56:46;7.80;;;1.90;;
57023;SDS011;42916;54.346;18.562;2023-09-30T14:59:13;7.10;;;1.80;;
57023;SDS011;42916;54.346;18.562;2023-09-30T15:01:40;14.00;;;2.00;;
57023;SDS011;42916;54.346;18.562;2023-09-30T15:04:07;8.30;;;1.80;;
57023;SDS011;42916;54.346;18.562;2023-09-30T15:06:34;9.70;;;2.00;;
57023;SDS011;42916;54.346;18.562;2023-09-30T15:09:01;9.50;;;1.70;;
57023;SDS011;42916;54.346;18.562;2023-09-30T15:11:28;8.40;;;2.10;;
57023;SDS011;42916;54.346;18.562;2023-09-30T15:13:55;8.70;;;1.70;;
57023;SDS011;42916;54.346;18.562;2023-09-30T15:16:23;8.20;;;1.60;;
57023;SDS011;42916;54.346;18.562;2023-09-30T15:18:51;10.00;;;2.20;;
57023;SDS011;42916;54.346;18.562;2023-09-30T15:21:18;7.80;;;2.10;;
57023;SDS011;42916;54.346;18.562;2023-09-30T15:23:45;10.10;;;2.20;;
57023;SDS011;42916;54.346;18.562;2023-09-30T15:26:12;7.50;;;2.00;;
57023;SDS011;42916;54.346;18.562;2023-09-30T15:28:40;8.80;;;2.40;;
57023;SDS011;42916;54.346;18.562;2023-09-30T15:31:06;6.40;;;2.00;;